createdAt,value
2022-12-08T00:03:20.775Z,87.48
2022-12-08T00:08:37.300Z,87.53
2022-12-08T00:13:36.487Z,87.50
2022-12-08T00:18:35.458Z,87.57
2022-12-08T00:23:34.545Z,87.58
2022-12-08T00:28:35.052Z,87.58
2022-12-08T00:33:33.731Z,87.32
2022-12-08T00:38:31.963Z,87.09
2022-12-08T00:43:33.756Z,86.27
2022-12-08T00:48:32.806Z,85.98
2022-12-08T00:53:33.560Z,85.50
2022-12-08T00:58:32.573Z,85.34
2022-12-08T01:03:32.105Z,84.84
2022-12-08T01:08:32.083Z,85.09
2022-12-08T01:13:31.407Z,85.17
2022-12-08T01:18:31.837Z,85.01
2022-12-08T01:23:30.709Z,84.82
2022-12-08T01:28:30.032Z,84.99
2022-12-08T01:33:30.089Z,84.72
2022-12-08T01:38:29.015Z,84.82
2022-12-08T01:43:41.681Z,84.66
2022-12-08T01:48:41.146Z,84.41
2022-12-08T01:53:40.340Z,84.38
2022-12-08T01:58:45.134Z,84.21
2022-12-08T02:03:51.638Z,84.09
2022-12-08T02:08:52.134Z,84.15
2022-12-08T02:13:54.287Z,84.26
2022-12-08T02:19:30.689Z,84.07
2022-12-08T02:24:40.621Z,84.19
2022-12-08T02:30:08.086Z,84.30
2022-12-08T02:35:12.491Z,83.92
2022-12-08T02:40:24.107Z,84.01
2022-12-08T02:45:31.772Z,84.01
2022-12-08T02:50:31.345Z,84.13
2022-12-08T02:55:41.816Z,84.05
2022-12-08T03:00:55.499Z,84.13
2022-12-08T03:06:13.703Z,84.19
2022-12-08T03:11:22.685Z,84.01
2022-12-08T03:16:28.259Z,83.95
2022-12-08T03:21:27.814Z,84.17
2022-12-08T03:26:35.840Z,84.09
2022-12-08T03:31:43.983Z,84.10
2022-12-08T03:36:47.333Z,84.22
2022-12-08T03:41:47.026Z,84.19
2022-12-08T03:46:46.085Z,84.27
2022-12-08T03:51:44.862Z,84.38
2022-12-08T03:56:44.360Z,84.46
2022-12-08T04:01:43.525Z,84.56
2022-12-08T04:06:42.841Z,84.62
2022-12-08T04:11:41.880Z,84.71
2022-12-08T04:16:40.541Z,84.44
2022-12-08T04:21:40.123Z,84.33
2022-12-08T04:26:38.836Z,84.18
2022-12-08T04:31:38.248Z,84.14
2022-12-08T04:36:37.139Z,83.75
2022-12-08T04:41:36.593Z,83.45
2022-12-08T04:46:40.204Z,83.59
2022-12-08T04:51:42.644Z,83.74
2022-12-08T04:56:41.897Z,83.96
2022-12-08T05:01:41.145Z,84.08
2022-12-08T05:06:40.502Z,84.24
2022-12-08T05:11:48.300Z,84.51
2022-12-08T05:16:49.656Z,84.74
2022-12-08T05:21:48.463Z,84.93
2022-12-08T05:26:47.795Z,85.09
2022-12-08T05:31:46.880Z,85.33
2022-12-08T05:36:45.315Z,85.28
2022-12-08T05:41:45.093Z,85.21
2022-12-08T05:46:44.415Z,85.15
2022-12-08T05:51:43.442Z,84.98
2022-12-08T05:56:43.365Z,84.98
2022-12-08T06:01:43.049Z,84.93
2022-12-08T06:06:41.823Z,85.01
2022-12-08T06:11:40.687Z,85.07
2022-12-08T06:16:39.673Z,85.16
2022-12-08T06:21:39.059Z,85.18
2022-12-08T06:26:40.245Z,85.21
2022-12-08T06:31:39.719Z,85.18
2022-12-08T06:36:39.114Z,85.03
2022-12-08T06:41:58.856Z,84.75
2022-12-08T06:46:57.727Z,84.77
2022-12-08T06:51:57.186Z,84.38
2022-12-08T06:57:01.681Z,84.21
2022-12-08T07:02:04.651Z,84.04
2022-12-08T07:07:04.163Z,83.83
2022-12-08T07:12:03.092Z,84.07
2022-12-08T07:17:02.494Z,84.17
2022-12-08T07:22:02.111Z,83.62
2022-12-08T07:27:01.278Z,83.27
2022-12-08T07:32:00.484Z,82.64
2022-12-08T07:36:59.872Z,81.94
2022-12-08T07:42:00.109Z,82.18
2022-12-08T07:46:59.412Z,82.49
2022-12-08T07:51:58.603Z,82.08
2022-12-08T07:57:00.370Z,81.58
2022-12-08T08:02:22.303Z,81.29
2022-12-08T08:07:18.379Z,81.00
2022-12-08T08:12:33.394Z,80.70
2022-12-08T08:17:33.580Z,80.87
2022-12-08T08:22:33.360Z,80.95
2022-12-08T08:27:32.549Z,81.17
2022-12-08T08:32:35.973Z,81.16
2022-12-08T08:37:35.859Z,80.95
2022-12-08T08:42:34.573Z,80.31
2022-12-08T08:47:33.689Z,80.36
2022-12-08T08:52:33.040Z,80.38
2022-12-08T08:57:32.795Z,79.97
2022-12-08T09:02:31.926Z,80.32
2022-12-08T09:07:31.770Z,80.63
2022-12-08T09:12:30.777Z,79.95
2022-12-08T09:17:30.165Z,80.18
2022-12-08T09:22:29.561Z,80.38
2022-12-08T09:27:28.547Z,80.38
2022-12-08T09:32:27.785Z,80.40
2022-12-08T09:37:26.651Z,80.01
2022-12-08T09:42:46.245Z,79.94
2022-12-08T09:47:59.285Z,79.13
2022-12-08T09:53:09.157Z,79.55
2022-12-08T09:58:18.723Z,79.80
2022-12-08T10:03:18.889Z,79.23
2022-12-08T10:08:27.559Z,79.18
2022-12-08T10:13:39.634Z,79.59
2022-12-08T10:18:39.453Z,79.29
2022-12-08T10:23:43.842Z,78.97
2022-12-08T10:28:45.387Z,78.24
2022-12-08T10:33:45.369Z,78.06
2022-12-08T10:38:45.346Z,78.43
2022-12-08T10:43:51.155Z,78.70
2022-12-08T10:48:56.208Z,78.59
2022-12-08T10:53:55.966Z,78.51
2022-12-08T10:59:16.085Z,78.05
2022-12-08T11:04:21.726Z,77.97
2022-12-08T11:09:48.739Z,78.06
2022-12-08T11:15:02.574Z,78.15
2022-12-08T11:20:06.733Z,78.11
2022-12-08T11:25:16.300Z,77.92
2022-12-08T11:30:23.779Z,77.56
2022-12-08T11:35:31.257Z,77.47
2022-12-08T11:40:37.100Z,77.89
2022-12-08T11:45:39.043Z,78.17
2022-12-08T11:50:48.312Z,78.84
2022-12-08T11:55:54.716Z,78.65
2022-12-08T12:00:54.149Z,78.68
2022-12-08T12:06:30.825Z,78.87
2022-12-08T12:12:00.314Z,78.86
2022-12-08T12:17:22.448Z,79.07
2022-12-08T12:22:26.884Z,79.54
2022-12-08T12:27:34.185Z,79.61
2022-12-08T12:32:50.708Z,79.77
2022-12-08T12:37:52.068Z,79.66
2022-12-08T12:43:26.556Z,79.78
2022-12-08T12:48:31.907Z,80.00
2022-12-08T12:53:52.880Z,79.89
2022-12-08T12:58:54.934Z,79.64
2022-12-08T13:04:07.805Z,79.65
2022-12-08T13:09:07.975Z,79.85
2022-12-08T13:14:08.133Z,79.93
2022-12-08T13:19:16.021Z,79.99
2022-12-08T13:24:35.498Z,79.95
2022-12-08T13:29:36.330Z,80.04
2022-12-08T13:34:42.805Z,80.03
2022-12-08T13:39:54.679Z,80.30
2022-12-08T13:45:21.764Z,80.34
2022-12-08T14:01:17.722Z,80.59
2022-12-08T14:06:26.486Z,80.78
2022-12-08T14:11:36.920Z,80.91
2022-12-08T14:16:42.871Z,80.95
2022-12-08T14:21:41.761Z,81.08
2022-12-08T14:26:41.010Z,81.21
2022-12-08T14:31:40.043Z,81.44
2022-12-08T14:36:39.793Z,81.52
2022-12-08T14:41:39.571Z,81.81
2022-12-08T14:46:38.712Z,81.96
2022-12-08T14:51:38.400Z,82.13
2022-12-08T14:56:48.918Z,82.46
2022-12-08T15:01:51.138Z,82.52
2022-12-08T15:07:00.339Z,82.67
2022-12-08T15:12:08.995Z,82.74
2022-12-08T15:17:31.367Z,82.91
2022-12-08T15:22:32.202Z,83.01
2022-12-08T15:27:34.962Z,83.14
2022-12-08T15:32:40.433Z,83.19
2022-12-08T15:37:38.917Z,83.27
2022-12-08T15:42:38.145Z,83.40
2022-12-08T15:47:37.279Z,83.51
2022-12-08T15:52:37.070Z,83.63
2022-12-08T15:58:24.871Z,83.72
2022-12-08T16:14:03.135Z,84.06
2022-12-08T16:19:17.144Z,84.13
2022-12-08T16:24:16.365Z,84.45
2022-12-08T16:29:23.107Z,84.45
2022-12-08T16:34:21.617Z,84.79
2022-12-08T16:39:20.901Z,84.98
2022-12-08T16:44:19.812Z,84.84
2022-12-08T16:49:18.535Z,84.91
2022-12-08T16:54:17.513Z,84.75
2022-12-08T16:59:16.891Z,84.92
2022-12-08T17:04:31.434Z,85.03
2022-12-08T17:09:32.229Z,84.99
2022-12-08T17:14:30.596Z,84.97
2022-12-08T17:19:29.213Z,85.06
2022-12-08T17:24:29.318Z,85.09
2022-12-08T17:29:28.608Z,84.96
2022-12-08T17:34:28.017Z,84.91
2022-12-08T17:39:27.455Z,84.91
2022-12-08T17:44:28.334Z,84.87
2022-12-08T17:49:30.975Z,84.79
2022-12-08T17:54:31.811Z,84.72
2022-12-08T17:59:32.052Z,84.75
2022-12-08T18:04:31.035Z,84.73
2022-12-08T18:09:33.950Z,84.66
2022-12-08T18:14:33.374Z,84.63
2022-12-08T18:19:32.884Z,84.57
2022-12-08T18:24:33.142Z,84.49
2022-12-08T18:29:31.582Z,84.39
2022-12-08T18:34:30.162Z,84.26
2022-12-08T18:39:32.517Z,83.98
2022-12-08T18:44:32.363Z,83.70
2022-12-08T18:49:30.744Z,83.43
2022-12-08T18:54:50.084Z,83.36
2022-12-08T18:59:49.385Z,83.26
2022-12-08T19:04:49.023Z,82.82
2022-12-08T19:09:48.220Z,82.88
2022-12-08T19:14:46.940Z,82.97
2022-12-08T19:19:45.679Z,82.79
2022-12-08T19:24:44.962Z,82.70
2022-12-08T19:29:43.575Z,82.46
2022-12-08T19:34:43.659Z,82.46
2022-12-08T19:40:00.681Z,82.47
2022-12-08T19:45:03.716Z,82.57
2022-12-08T19:50:20.811Z,82.65
2022-12-08T19:55:19.763Z,82.78
2022-12-08T20:00:22.146Z,82.93
2022-12-08T20:05:21.328Z,83.17
2022-12-08T20:10:24.430Z,83.40
2022-12-08T20:15:23.860Z,83.47
2022-12-08T20:20:24.012Z,83.59
2022-12-08T20:25:23.614Z,83.82
2022-12-08T20:30:22.746Z,84.23
2022-12-08T20:35:21.680Z,84.22
2022-12-08T20:40:21.444Z,84.18
2022-12-08T20:45:21.470Z,84.18
2022-12-08T20:50:20.763Z,84.42
2022-12-08T20:55:19.997Z,84.66
2022-12-08T21:00:21.523Z,85.14
2022-12-08T21:05:20.658Z,85.08
2022-12-08T21:10:19.704Z,85.32
2022-12-08T21:15:19.177Z,85.25
2022-12-08T21:20:18.676Z,85.43
2022-12-08T21:25:17.718Z,85.35
2022-12-08T21:30:19.115Z,85.37
2022-12-08T21:35:18.376Z,85.31
2022-12-08T21:40:19.791Z,85.32
2022-12-08T21:45:21.993Z,85.33
2022-12-08T21:50:22.796Z,85.33
2022-12-08T21:55:23.947Z,85.30
2022-12-08T22:00:26.716Z,85.36
2022-12-08T22:05:26.730Z,85.36
2022-12-08T22:10:25.790Z,85.38
2022-12-08T22:15:26.159Z,85.35
2022-12-08T22:20:26.688Z,85.37
2022-12-08T22:25:28.028Z,85.36
2022-12-08T22:30:27.605Z,85.39
2022-12-08T22:35:27.057Z,85.43
2022-12-08T22:40:26.639Z,85.50
2022-12-08T22:45:25.979Z,85.57
2022-12-08T22:50:25.625Z,85.63
2022-12-08T22:55:25.141Z,85.68
2022-12-08T23:00:25.557Z,85.73
2022-12-08T23:05:25.320Z,85.77
2022-12-08T23:10:25.162Z,85.82
2022-12-08T23:15:24.568Z,85.91
2022-12-08T23:20:24.891Z,85.96
2022-12-08T23:25:24.306Z,86.05
2022-12-08T23:30:23.137Z,86.18
2022-12-08T23:35:23.126Z,86.20
2022-12-08T23:40:22.490Z,86.24
2022-12-08T23:45:22.239Z,86.25
2022-12-08T23:50:21.558Z,86.29
2022-12-08T23:55:21.332Z,86.36
